sensor_id;sensor_type;location;lat;lon;timestamp;P1;durP1;ratioP1;P2;durP2;ratioP2
26512;SDS011;14186;53.822;10.152;2024-03-02T00:03:53;31.42;;;13.88;;
26512;SDS011;14186;53.822;10.152;2024-03-02T00:08:56;29.20;;;12.82;;
26512;SDS011;14186;53.822;10.152;2024-03-02T00:13:57;29.77;;;12.98;;
26512;SDS011;14186;53.822;10.152;2024-03-02T00:19:02;32.45;;;13.15;;
26512;SDS011;14186;53.822;10.152;2024-03-02T00:24:04;35.03;;;15.38;;
26512;SDS011;14186;53.822;10.152;2024-03-02T00:29:06;32.92;;;13.50;;
26512;SDS011;14186;53.822;10.152;2024-03-02T00:34:08;30.25;;;13.95;;
26512;SDS011;14186;53.822;10.152;2024-03-02T00:39:08;33.58;;;14.30;;
26512;SDS011;14186;53.822;10.152;2024-03-02T00:44:09;31.67;;;13.48;;
26512;SDS011;14186;53.822;10.152;2024-03-02T00:49:15;31.67;;;14.15;;
26512;SDS011;14186;53.822;10.152;2024-03-02T00:54:19;31.00;;;13.43;;
26512;SDS011;14186;53.822;10.152;2024-03-02T00:59:19;32.05;;;13.60;;
26512;SDS011;14186;53.822;10.152;2024-03-02T01:04:20;36.35;;;15.30;;
26512;SDS011;14186;53.822;10.152;2024-03-02T01:09:21;35.05;;;14.43;;
26512;SDS011;14186;53.822;10.152;2024-03-02T01:14:21;35.53;;;14.85;;
26512;SDS011;14186;53.822;10.152;2024-03-02T01:19:22;33.63;;;13.98;;
26512;SDS011;14186;53.822;10.152;2024-03-02T01:24:22;36.05;;;14.05;;
26512;SDS011;14186;53.822;10.152;2024-03-02T01:29:23;32.63;;;12.90;;
26512;SDS011;14186;53.822;10.152;2024-03-02T01:34:24;31.27;;;14.00;;
26512;SDS011;14186;53.822;10.152;2024-03-02T01:39:25;35.40;;;14.27;;
26512;SDS011;14186;53.822;10.152;2024-03-02T01:44:25;39.53;;;14.30;;
26512;SDS011;14186;53.822;10.152;2024-03-02T01:49:26;32.53;;;14.15;;
26512;SDS011;14186;53.822;10.152;2024-03-02T01:54:27;37.28;;;15.43;;
26512;SDS011;14186;53.822;10.152;2024-03-02T01:59:27;37.83;;;16.45;;
26512;SDS011;14186;53.822;10.152;2024-03-02T02:04:28;37.78;;;14.50;;
26512;SDS011;14186;53.822;10.152;2024-03-02T02:09:28;34.22;;;14.60;;
26512;SDS011;14186;53.822;10.152;2024-03-02T02:14:29;33.65;;;14.18;;
26512;SDS011;14186;53.822;10.152;2024-03-02T02:19:30;34.05;;;14.88;;
26512;SDS011;14186;53.822;10.152;2024-03-02T02:24:32;35.33;;;14.43;;
26512;SDS011;14186;53.822;10.152;2024-03-02T02:29:32;33.35;;;14.70;;
26512;SDS011;14186;53.822;10.152;2024-03-02T02:34:32;38.17;;;15.53;;
26512;SDS011;14186;53.822;10.152;2024-03-02T02:39:34;37.42;;;14.48;;
26512;SDS011;14186;53.822;10.152;2024-03-02T02:44:34;40.05;;;14.88;;
26512;SDS011;14186;53.822;10.152;2024-03-02T02:49:35;32.70;;;14.25;;
26512;SDS011;14186;53.822;10.152;2024-03-02T02:54:37;32.90;;;15.00;;
26512;SDS011;14186;53.822;10.152;2024-03-02T02:59:37;37.58;;;14.60;;
26512;SDS011;14186;53.822;10.152;2024-03-02T03:04:39;38.75;;;14.63;;
26512;SDS011;14186;53.822;10.152;2024-03-02T03:09:41;36.10;;;15.18;;
26512;SDS011;14186;53.822;10.152;2024-03-02T03:14:41;39.13;;;14.65;;
26512;SDS011;14186;53.822;10.152;2024-03-02T03:19:41;40.95;;;17.15;;
26512;SDS011;14186;53.822;10.152;2024-03-02T03:24:43;34.78;;;14.73;;
26512;SDS011;14186;53.822;10.152;2024-03-02T03:29:43;38.08;;;14.15;;
26512;SDS011;14186;53.822;10.152;2024-03-02T03:34:43;38.53;;;14.13;;
26512;SDS011;14186;53.822;10.152;2024-03-02T03:39:45;39.00;;;15.38;;
26512;SDS011;14186;53.822;10.152;2024-03-02T03:44:45;42.13;;;15.75;;
26512;SDS011;14186;53.822;10.152;2024-03-02T03:49:45;36.03;;;14.90;;
26512;SDS011;14186;53.822;10.152;2024-03-02T03:54:47;34.47;;;14.93;;
26512;SDS011;14186;53.822;10.152;2024-03-02T03:59:47;36.17;;;14.57;;
26512;SDS011;14186;53.822;10.152;2024-03-02T04:04:47;34.58;;;14.70;;
26512;SDS011;14186;53.822;10.152;2024-03-02T04:09:48;34.38;;;14.48;;
26512;SDS011;14186;53.822;10.152;2024-03-02T04:14:49;39.53;;;15.02;;
26512;SDS011;14186;53.822;10.152;2024-03-02T04:19:49;37.47;;;14.60;;
26512;SDS011;14186;53.822;10.152;2024-03-02T04:24:51;34.83;;;14.38;;
26512;SDS011;14186;53.822;10.152;2024-03-02T04:29:51;33.38;;;14.27;;
26512;SDS011;14186;53.822;10.152;2024-03-02T04:34:51;34.88;;;14.40;;
26512;SDS011;14186;53.822;10.152;2024-03-02T04:39:53;32.15;;;14.68;;
26512;SDS011;14186;53.822;10.152;2024-03-02T04:44:53;40.63;;;16.63;;
26512;SDS011;14186;53.822;10.152;2024-03-02T04:49:53;38.30;;;15.65;;
26512;SDS011;14186;53.822;10.152;2024-03-02T04:54:55;32.97;;;13.65;;
26512;SDS011;14186;53.822;10.152;2024-03-02T04:59:55;32.25;;;15.27;;
26512;SDS011;14186;53.822;10.152;2024-03-02T05:04:55;34.00;;;14.27;;
26512;SDS011;14186;53.822;10.152;2024-03-02T05:09:57;33.45;;;14.60;;
26512;SDS011;14186;53.822;10.152;2024-03-02T05:14:57;36.50;;;14.32;;
26512;SDS011;14186;53.822;10.152;2024-03-02T05:19:57;41.30;;;15.52;;
26512;SDS011;14186;53.822;10.152;2024-03-02T05:24:59;40.13;;;15.55;;
26512;SDS011;14186;53.822;10.152;2024-03-02T05:29:59;33.03;;;13.70;;
26512;SDS011;14186;53.822;10.152;2024-03-02T05:34:59;34.65;;;14.73;;
26512;SDS011;14186;53.822;10.152;2024-03-02T05:40:01;37.03;;;14.98;;
26512;SDS011;14186;53.822;10.152;2024-03-02T05:45:01;34.47;;;13.98;;
26512;SDS011;14186;53.822;10.152;2024-03-02T05:50:01;33.20;;;14.10;;
26512;SDS011;14186;53.822;10.152;2024-03-02T05:55:03;31.33;;;13.07;;
26512;SDS011;14186;53.822;10.152;2024-03-02T06:00:04;41.15;;;16.05;;
26512;SDS011;14186;53.822;10.152;2024-03-02T06:05:05;31.10;;;14.45;;
26512;SDS011;14186;53.822;10.152;2024-03-02T06:10:08;34.65;;;15.43;;
26512;SDS011;14186;53.822;10.152;2024-03-02T06:15:08;39.58;;;14.80;;
26512;SDS011;14186;53.822;10.152;2024-03-02T06:20:09;38.05;;;14.93;;
26512;SDS011;14186;53.822;10.152;2024-03-02T06:25:11;36.58;;;15.02;;
26512;SDS011;14186;53.822;10.152;2024-03-02T06:30:11;39.72;;;15.32;;
26512;SDS011;14186;53.822;10.152;2024-03-02T06:35:12;36.97;;;14.90;;
26512;SDS011;14186;53.822;10.152;2024-03-02T06:40:14;32.00;;;13.77;;
26512;SDS011;14186;53.822;10.152;2024-03-02T06:45:14;38.25;;;15.07;;
26512;SDS011;14186;53.822;10.152;2024-03-02T06:50:14;33.83;;;13.07;;
26512;SDS011;14186;53.822;10.152;2024-03-02T06:55:16;32.17;;;15.02;;
26512;SDS011;14186;53.822;10.152;2024-03-02T07:00:16;30.83;;;14.10;;
26512;SDS011;14186;53.822;10.152;2024-03-02T07:05:16;36.38;;;14.48;;
26512;SDS011;14186;53.822;10.152;2024-03-02T07:10:18;34.50;;;14.82;;
26512;SDS011;14186;53.822;10.152;2024-03-02T07:15:18;33.70;;;14.48;;
26512;SDS011;14186;53.822;10.152;2024-03-02T07:20:18;33.53;;;14.52;;
26512;SDS011;14186;53.822;10.152;2024-03-02T07:25:20;31.85;;;13.38;;
26512;SDS011;14186;53.822;10.152;2024-03-02T07:30:20;37.55;;;13.55;;
26512;SDS011;14186;53.822;10.152;2024-03-02T07:35:20;28.92;;;12.65;;
26512;SDS011;14186;53.822;10.152;2024-03-02T07:40:22;31.27;;;12.65;;
26512;SDS011;14186;53.822;10.152;2024-03-02T07:45:22;33.05;;;14.00;;
26512;SDS011;14186;53.822;10.152;2024-03-02T07:50:22;31.58;;;13.77;;
26512;SDS011;14186;53.822;10.152;2024-03-02T07:55:24;22.52;;;9.52;;
26512;SDS011;14186;53.822;10.152;2024-03-02T08:00:24;26.58;;;11.93;;
26512;SDS011;14186;53.822;10.152;2024-03-02T08:05:24;28.08;;;12.43;;
26512;SDS011;14186;53.822;10.152;2024-03-02T08:10:26;28.65;;;12.13;;
26512;SDS011;14186;53.822;10.152;2024-03-02T08:15:26;28.13;;;13.00;;
26512;SDS011;14186;53.822;10.152;2024-03-02T08:20:26;24.73;;;11.77;;
26512;SDS011;14186;53.822;10.152;2024-03-02T08:25:28;28.27;;;11.25;;
26512;SDS011;14186;53.822;10.152;2024-03-02T08:30:28;27.98;;;12.30;;
26512;SDS011;14186;53.822;10.152;2024-03-02T08:35:28;24.25;;;11.60;;
26512;SDS011;14186;53.822;10.152;2024-03-02T08:40:30;25.33;;;10.88;;
26512;SDS011;14186;53.822;10.152;2024-03-02T08:45:30;22.52;;;10.75;;
26512;SDS011;14186;53.822;10.152;2024-03-02T08:50:30;25.25;;;10.43;;
26512;SDS011;14186;53.822;10.152;2024-03-02T08:55:32;23.45;;;11.35;;
26512;SDS011;14186;53.822;10.152;2024-03-02T09:00:32;23.83;;;11.02;;
26512;SDS011;14186;53.822;10.152;2024-03-02T09:05:32;23.58;;;11.10;;
26512;SDS011;14186;53.822;10.152;2024-03-02T09:10:34;24.15;;;10.93;;
26512;SDS011;14186;53.822;10.152;2024-03-02T09:15:34;24.27;;;10.70;;
26512;SDS011;14186;53.822;10.152;2024-03-02T09:20:34;21.30;;;9.90;;
26512;SDS011;14186;53.822;10.152;2024-03-02T09:25:36;22.15;;;10.25;;
26512;SDS011;14186;53.822;10.152;2024-03-02T09:30:36;23.73;;;11.18;;
26512;SDS011;14186;53.822;10.152;2024-03-02T09:35:36;20.65;;;10.43;;
26512;SDS011;14186;53.822;10.152;2024-03-02T09:40:38;23.88;;;10.50;;
26512;SDS011;14186;53.822;10.152;2024-03-02T09:45:38;20.13;;;9.88;;
26512;SDS011;14186;53.822;10.152;2024-03-02T09:50:38;21.45;;;10.20;;
26512;SDS011;14186;53.822;10.152;2024-03-02T09:55:40;21.50;;;9.95;;
26512;SDS011;14186;53.822;10.152;2024-03-02T10:00:40;22.00;;;9.95;;
26512;SDS011;14186;53.822;10.152;2024-03-02T10:05:40;19.65;;;9.90;;
26512;SDS011;14186;53.822;10.152;2024-03-02T10:10:42;18.27;;;9.35;;
26512;SDS011;14186;53.822;10.152;2024-03-02T10:15:42;20.85;;;9.15;;
26512;SDS011;14186;53.822;10.152;2024-03-02T10:20:42;14.93;;;8.20;;
26512;SDS011;14186;53.822;10.152;2024-03-02T10:25:44;18.30;;;8.82;;
26512;SDS011;14186;53.822;10.152;2024-03-02T10:30:47;14.43;;;8.13;;
26512;SDS011;14186;53.822;10.152;2024-03-02T10:35:47;16.70;;;7.95;;
26512;SDS011;14186;53.822;10.152;2024-03-02T10:40:50;17.48;;;8.23;;
26512;SDS011;14186;53.822;10.152;2024-03-02T10:45:50;15.95;;;7.93;;
26512;SDS011;14186;53.822;10.152;2024-03-02T10:50:51;16.10;;;7.78;;
26512;SDS011;14186;53.822;10.152;2024-03-02T10:55:53;15.90;;;8.23;;
26512;SDS011;14186;53.822;10.152;2024-03-02T11:00:57;16.63;;;6.82;;
26512;SDS011;14186;53.822;10.152;2024-03-02T11:05:59;17.35;;;7.55;;
26512;SDS011;14186;53.822;10.152;2024-03-02T11:11:09;15.10;;;7.60;;
26512;SDS011;14186;53.822;10.152;2024-03-02T11:16:16;15.95;;;7.13;;
26512;SDS011;14186;53.822;10.152;2024-03-02T11:21:19;19.70;;;8.13;;
26512;SDS011;14186;53.822;10.152;2024-03-02T11:26:21;13.98;;;7.80;;
26512;SDS011;14186;53.822;10.152;2024-03-02T11:31:21;13.55;;;7.45;;
26512;SDS011;14186;53.822;10.152;2024-03-02T11:36:22;14.20;;;7.75;;
26512;SDS011;14186;53.822;10.152;2024-03-02T11:41:23;13.93;;;6.80;;
26512;SDS011;14186;53.822;10.152;2024-03-02T11:46:24;14.27;;;6.55;;
26512;SDS011;14186;53.822;10.152;2024-03-02T11:51:25;13.00;;;7.20;;
26512;SDS011;14186;53.822;10.152;2024-03-02T11:56:27;19.38;;;9.88;;
26512;SDS011;14186;53.822;10.152;2024-03-02T12:01:28;19.90;;;8.05;;
26512;SDS011;14186;53.822;10.152;2024-03-02T12:06:29;16.10;;;8.55;;
26512;SDS011;14186;53.822;10.152;2024-03-02T12:11:30;18.33;;;10.88;;
26512;SDS011;14186;53.822;10.152;2024-03-02T12:16:30;14.80;;;7.95;;
26512;SDS011;14186;53.822;10.152;2024-03-02T12:21:31;18.52;;;9.00;;
26512;SDS011;14186;53.822;10.152;2024-03-02T12:26:32;16.83;;;8.00;;
26512;SDS011;14186;53.822;10.152;2024-03-02T12:31:32;16.30;;;8.65;;
26512;SDS011;14186;53.822;10.152;2024-03-02T12:36:36;17.45;;;9.27;;
26512;SDS011;14186;53.822;10.152;2024-03-02T12:41:38;15.55;;;8.30;;
26512;SDS011;14186;53.822;10.152;2024-03-02T12:46:38;17.80;;;7.72;;
26512;SDS011;14186;53.822;10.152;2024-03-02T12:51:39;20.27;;;9.40;;
26512;SDS011;14186;53.822;10.152;2024-03-02T12:56:41;14.80;;;7.78;;
26512;SDS011;14186;53.822;10.152;2024-03-02T13:01:49;18.27;;;7.80;;
26512;SDS011;14186;53.822;10.152;2024-03-02T13:06:49;18.27;;;8.60;;
26512;SDS011;14186;53.822;10.152;2024-03-02T13:11:51;15.85;;;7.80;;
26512;SDS011;14186;53.822;10.152;2024-03-02T13:16:51;14.63;;;7.80;;
26512;SDS011;14186;53.822;10.152;2024-03-02T13:21:51;17.60;;;8.50;;
26512;SDS011;14186;53.822;10.152;2024-03-02T13:26:53;15.88;;;7.50;;
26512;SDS011;14186;53.822;10.152;2024-03-02T13:31:53;13.23;;;7.32;;
26512;SDS011;14186;53.822;10.152;2024-03-02T13:36:53;13.80;;;7.90;;
26512;SDS011;14186;53.822;10.152;2024-03-02T13:41:55;15.13;;;7.80;;
26512;SDS011;14186;53.822;10.152;2024-03-02T13:46:55;15.00;;;7.22;;
26512;SDS011;14186;53.822;10.152;2024-03-02T13:51:55;15.07;;;7.15;;
26512;SDS011;14186;53.822;10.152;2024-03-02T13:56:57;16.58;;;7.40;;
26512;SDS011;14186;53.822;10.152;2024-03-02T14:01:57;16.73;;;7.35;;
26512;SDS011;14186;53.822;10.152;2024-03-02T14:06:57;15.77;;;8.40;;
26512;SDS011;14186;53.822;10.152;2024-03-02T14:11:59;15.57;;;7.50;;
26512;SDS011;14186;53.822;10.152;2024-03-02T14:16:59;15.60;;;6.88;;
26512;SDS011;14186;53.822;10.152;2024-03-02T14:21:59;12.75;;;6.00;;
26512;SDS011;14186;53.822;10.152;2024-03-02T14:27:01;12.10;;;6.43;;
26512;SDS011;14186;53.822;10.152;2024-03-02T14:32:01;13.38;;;6.93;;
26512;SDS011;14186;53.822;10.152;2024-03-02T14:37:01;14.18;;;6.72;;
26512;SDS011;14186;53.822;10.152;2024-03-02T14:42:03;11.75;;;6.28;;
26512;SDS011;14186;53.822;10.152;2024-03-02T14:47:04;13.25;;;6.68;;
26512;SDS011;14186;53.822;10.152;2024-03-02T14:52:04;14.82;;;6.47;;
26512;SDS011;14186;53.822;10.152;2024-03-02T14:57:06;9.77;;;5.18;;
26512;SDS011;14186;53.822;10.152;2024-03-02T15:02:07;13.45;;;6.38;;
26512;SDS011;14186;53.822;10.152;2024-03-02T15:07:07;13.55;;;6.50;;
26512;SDS011;14186;53.822;10.152;2024-03-02T15:12:08;12.50;;;6.28;;
26512;SDS011;14186;53.822;10.152;2024-03-02T15:17:09;13.93;;;6.60;;
26512;SDS011;14186;53.822;10.152;2024-03-02T15:22:09;14.13;;;6.32;;
26512;SDS011;14186;53.822;10.152;2024-03-02T15:27:11;13.88;;;6.88;;
26512;SDS011;14186;53.822;10.152;2024-03-02T15:32:11;14.85;;;6.55;;
26512;SDS011;14186;53.822;10.152;2024-03-02T15:37:11;13.27;;;5.65;;
26512;SDS011;14186;53.822;10.152;2024-03-02T15:42:13;13.07;;;5.20;;
26512;SDS011;14186;53.822;10.152;2024-03-02T15:47:13;12.27;;;6.15;;
26512;SDS011;14186;53.822;10.152;2024-03-02T15:52:13;10.10;;;5.03;;
26512;SDS011;14186;53.822;10.152;2024-03-02T15:57:14;10.95;;;4.95;;
26512;SDS011;14186;53.822;10.152;2024-03-02T16:02:15;13.68;;;5.78;;
26512;SDS011;14186;53.822;10.152;2024-03-02T16:07:15;12.20;;;6.03;;
26512;SDS011;14186;53.822;10.152;2024-03-02T16:12:17;14.20;;;5.50;;
26512;SDS011;14186;53.822;10.152;2024-03-02T16:17:17;14.32;;;6.35;;
26512;SDS011;14186;53.822;10.152;2024-03-02T16:22:17;12.73;;;5.63;;
26512;SDS011;14186;53.822;10.152;2024-03-02T16:27:19;8.73;;;4.85;;
26512;SDS011;14186;53.822;10.152;2024-03-02T16:32:19;11.85;;;6.00;;
26512;SDS011;14186;53.822;10.152;2024-03-02T16:37:19;12.02;;;5.43;;
26512;SDS011;14186;53.822;10.152;2024-03-02T16:42:20;12.90;;;5.95;;
26512;SDS011;14186;53.822;10.152;2024-03-02T16:47:21;12.43;;;5.65;;
26512;SDS011;14186;53.822;10.152;2024-03-02T16:52:21;13.35;;;6.22;;
26512;SDS011;14186;53.822;10.152;2024-03-02T16:57:23;12.70;;;6.28;;
26512;SDS011;14186;53.822;10.152;2024-03-02T17:02:23;16.90;;;6.80;;
26512;SDS011;14186;53.822;10.152;2024-03-02T17:07:23;14.32;;;5.88;;
26512;SDS011;14186;53.822;10.152;2024-03-02T17:12:25;15.80;;;5.88;;
26512;SDS011;14186;53.822;10.152;2024-03-02T17:17:25;10.98;;;4.80;;
26512;SDS011;14186;53.822;10.152;2024-03-02T17:22:25;10.93;;;5.07;;
26512;SDS011;14186;53.822;10.152;2024-03-02T17:27:27;14.02;;;5.72;;
26512;SDS011;14186;53.822;10.152;2024-03-02T17:32:27;35.88;;;17.95;;
26512;SDS011;14186;53.822;10.152;2024-03-02T17:37:27;45.33;;;23.60;;
26512;SDS011;14186;53.822;10.152;2024-03-02T17:42:29;28.42;;;13.80;;
26512;SDS011;14186;53.822;10.152;2024-03-02T17:47:29;20.65;;;12.00;;
26512;SDS011;14186;53.822;10.152;2024-03-02T17:52:29;21.35;;;10.05;;
26512;SDS011;14186;53.822;10.152;2024-03-02T17:57:31;18.90;;;9.27;;
26512;SDS011;14186;53.822;10.152;2024-03-02T18:02:31;20.98;;;9.65;;
26512;SDS011;14186;53.822;10.152;2024-03-02T18:07:31;23.65;;;11.35;;
26512;SDS011;14186;53.822;10.152;2024-03-02T18:12:33;23.90;;;11.32;;
26512;SDS011;14186;53.822;10.152;2024-03-02T18:17:33;19.20;;;8.27;;
26512;SDS011;14186;53.822;10.152;2024-03-02T18:22:33;19.27;;;8.65;;
26512;SDS011;14186;53.822;10.152;2024-03-02T18:27:36;22.42;;;10.57;;
26512;SDS011;14186;53.822;10.152;2024-03-02T18:32:37;24.75;;;9.05;;
26512;SDS011;14186;53.822;10.152;2024-03-02T18:37:37;16.05;;;7.95;;
26512;SDS011;14186;53.822;10.152;2024-03-02T18:42:39;17.35;;;8.32;;
26512;SDS011;14186;53.822;10.152;2024-03-02T18:47:39;18.30;;;9.05;;
26512;SDS011;14186;53.822;10.152;2024-03-02T18:52:39;20.55;;;10.15;;
26512;SDS011;14186;53.822;10.152;2024-03-02T18:57:41;21.85;;;11.65;;
26512;SDS011;14186;53.822;10.152;2024-03-02T19:02:41;29.95;;;15.10;;
26512;SDS011;14186;53.822;10.152;2024-03-02T19:07:41;20.23;;;9.85;;
26512;SDS011;14186;53.822;10.152;2024-03-02T19:12:43;26.95;;;11.52;;
26512;SDS011;14186;53.822;10.152;2024-03-02T19:17:43;23.50;;;10.45;;
26512;SDS011;14186;53.822;10.152;2024-03-02T19:22:43;26.17;;;12.55;;
26512;SDS011;14186;53.822;10.152;2024-03-02T19:27:45;32.78;;;13.32;;
26512;SDS011;14186;53.822;10.152;2024-03-02T19:32:45;25.45;;;11.70;;
26512;SDS011;14186;53.822;10.152;2024-03-02T19:37:45;24.20;;;11.73;;
26512;SDS011;14186;53.822;10.152;2024-03-02T19:42:47;27.48;;;12.82;;
26512;SDS011;14186;53.822;10.152;2024-03-02T19:47:47;24.63;;;11.77;;
26512;SDS011;14186;53.822;10.152;2024-03-02T19:52:47;28.15;;;12.50;;
26512;SDS011;14186;53.822;10.152;2024-03-02T19:57:49;22.63;;;11.98;;
26512;SDS011;14186;53.822;10.152;2024-03-02T20:02:49;27.73;;;13.00;;
26512;SDS011;14186;53.822;10.152;2024-03-02T20:07:49;30.75;;;13.20;;
26512;SDS011;14186;53.822;10.152;2024-03-02T20:12:51;26.83;;;12.50;;
26512;SDS011;14186;53.822;10.152;2024-03-02T20:17:51;24.08;;;12.23;;
26512;SDS011;14186;53.822;10.152;2024-03-02T20:22:51;23.83;;;10.95;;
26512;SDS011;14186;53.822;10.152;2024-03-02T20:27:55;28.70;;;12.60;;
26512;SDS011;14186;53.822;10.152;2024-03-02T20:32:55;27.05;;;12.25;;
26512;SDS011;14186;53.822;10.152;2024-03-02T20:37:55;25.67;;;12.20;;
26512;SDS011;14186;53.822;10.152;2024-03-02T20:42:58;25.40;;;12.27;;
26512;SDS011;14186;53.822;10.152;2024-03-02T20:47:59;21.02;;;10.10;;
26512;SDS011;14186;53.822;10.152;2024-03-02T20:52:59;28.50;;;11.35;;
26512;SDS011;14186;53.822;10.152;2024-03-02T20:58:01;28.00;;;11.70;;
26512;SDS011;14186;53.822;10.152;2024-03-02T21:03:01;24.15;;;11.13;;
26512;SDS011;14186;53.822;10.152;2024-03-02T21:08:01;23.30;;;11.63;;
26512;SDS011;14186;53.822;10.152;2024-03-02T21:13:03;29.45;;;12.95;;
26512;SDS011;14186;53.822;10.152;2024-03-02T21:18:04;27.67;;;12.10;;
26512;SDS011;14186;53.822;10.152;2024-03-02T21:23:04;30.35;;;13.27;;
26512;SDS011;14186;53.822;10.152;2024-03-02T21:28:05;27.10;;;13.40;;
26512;SDS011;14186;53.822;10.152;2024-03-02T21:33:06;28.27;;;12.00;;
26512;SDS011;14186;53.822;10.152;2024-03-02T21:38:06;24.42;;;11.30;;
26512;SDS011;14186;53.822;10.152;2024-03-02T21:43:08;23.48;;;11.30;;
26512;SDS011;14186;53.822;10.152;2024-03-02T21:48:08;20.30;;;10.43;;
26512;SDS011;14186;53.822;10.152;2024-03-02T21:53:08;24.35;;;12.15;;
26512;SDS011;14186;53.822;10.152;2024-03-02T21:58:10;27.83;;;12.15;;
26512;SDS011;14186;53.822;10.152;2024-03-02T22:03:10;23.90;;;11.70;;
26512;SDS011;14186;53.822;10.152;2024-03-02T22:08:10;25.55;;;12.48;;
26512;SDS011;14186;53.822;10.152;2024-03-02T22:13:12;25.48;;;11.98;;
26512;SDS011;14186;53.822;10.152;2024-03-02T22:18:12;24.13;;;10.30;;
26512;SDS011;14186;53.822;10.152;2024-03-02T22:23:13;23.73;;;9.77;;
26512;SDS011;14186;53.822;10.152;2024-03-02T22:28:14;25.58;;;12.00;;
26512;SDS011;14186;53.822;10.152;2024-03-02T22:33:15;25.38;;;12.10;;
26512;SDS011;14186;53.822;10.152;2024-03-02T22:38:15;26.13;;;12.05;;
26512;SDS011;14186;53.822;10.152;2024-03-02T22:43:16;35.22;;;14.10;;
26512;SDS011;14186;53.822;10.152;2024-03-02T22:48:17;29.83;;;13.55;;
26512;SDS011;14186;53.822;10.152;2024-03-02T22:53:17;28.48;;;12.15;;
26512;SDS011;14186;53.822;10.152;2024-03-02T22:58:19;30.63;;;12.60;;
26512;SDS011;14186;53.822;10.152;2024-03-02T23:03:19;30.23;;;13.60;;
26512;SDS011;14186;53.822;10.152;2024-03-02T23:08:19;30.92;;;12.98;;
26512;SDS011;14186;53.822;10.152;2024-03-02T23:13:21;29.70;;;14.20;;
26512;SDS011;14186;53.822;10.152;2024-03-02T23:18:21;27.00;;;12.43;;
26512;SDS011;14186;53.822;10.152;2024-03-02T23:23:21;32.40;;;13.55;;
26512;SDS011;14186;53.822;10.152;2024-03-02T23:28:22;30.50;;;14.50;;
26512;SDS011;14186;53.822;10.152;2024-03-02T23:33:24;34.08;;;14.98;;
26512;SDS011;14186;53.822;10.152;2024-03-02T23:38:24;32.40;;;13.48;;
26512;SDS011;14186;53.822;10.152;2024-03-02T23:43:26;32.97;;;14.52;;
26512;SDS011;14186;53.822;10.152;2024-03-02T23:48:26;31.85;;;14.38;;
26512;SDS011;14186;53.822;10.152;2024-03-02T23:53:26;30.55;;;14.35;;
26512;SDS011;14186;53.822;10.152;2024-03-02T23:58:28;31.52;;;14.73;;
